Time;durP1;ratioP1;P1;durP2;ratioP2;P2;SDS_P1;SDS_P2;PMS_P1;PMS_P2;Temp;Humidity;BMP_temperature;BMP_pressure;BME280_temperature;BME280_humidity;BME280_pressure;Samples;Min_cycle;Max_cycle;Signal;HPM_P1;HPM_P2
2023/01/16 00:00:46;;;;;;;;;;;2.70;91.70;;;;;;5055820;28;19936;-83
2023/01/16 00:03:12;;;;;;;;;;;2.70;91.70;;;;;;5055925;28;19909;-80
2023/01/16 00:05:37;;;;;;;;;;;2.80;91.70;;;;;;5055601;28;19977;-81
2023/01/16 00:08:03;;;;;;;;;;;2.70;91.70;;;;;;5061513;28;19908;-81
2023/01/16 00:10:31;;;;;;;;;;;2.70;91.80;;;;;;5045179;28;19976;-82
2023/01/16 00:12:56;;;;;;;;;;;2.60;92.00;;;;;;5045519;28;19917;-82
2023/01/16 00:15:22;;;;;;;;;;;2.60;92.00;;;;;;5062353;28;19940;-80
2023/01/16 00:17:49;;;;;;;;;;;2.60;92.10;;;;;;5077867;28;19901;-79
2023/01/16 00:20:15;;;;;;;;;;;2.50;92.10;;;;;;5062761;28;19909;-83
2023/01/16 00:22:41;;;;;;;;;;;2.50;92.20;;;;;;5060941;28;19916;-83
2023/01/16 00:25:06;;;;;;;;;;;2.50;92.40;;;;;;5059172;28;19916;-82
2023/01/16 00:27:32;;;;;;;;;;;2.50;92.40;;;;;;5059272;28;19930;-84
2023/01/16 00:29:58;;;;;;;;;;;2.50;92.30;;;;;;5067266;28;19932;-82
2023/01/16 00:32:23;;;;;;;;;;;2.50;92.30;;;;;;5060968;28;19968;-82
2023/01/16 00:34:49;;;;;;;;;;;2.50;92.20;;;;;;5042857;28;19983;-83
2023/01/16 00:37:17;;;;;;;;;;;2.50;92.10;;;;;;5070249;28;19901;-81
2023/01/16 00:39:42;;;;;;;;;;;2.50;92.20;;;;;;5056616;28;19901;-80
2023/01/16 00:42:08;;;;;;;;;;;2.50;92.20;;;;;;5056510;28;19912;-77
2023/01/16 00:44:34;;;;;;;;;;;2.50;92.40;;;;;;5055180;28;19901;-81
2023/01/16 00:47:00;;;;;;;;;;;2.50;92.40;;;;;;5047787;28;19909;-81
2023/01/16 00:49:25;;;;;;;;;;;2.50;92.40;;;;;;5069995;28;19905;-80
2023/01/16 00:51:51;;;;;;;;;;;2.50;92.50;;;;;;5077098;28;19955;-79
2023/01/16 00:54:16;;;;;;;;;;;2.50;92.70;;;;;;5059497;28;19981;-79
2023/01/16 00:56:42;;;;;;;;;;;2.40;92.70;;;;;;5057120;28;19913;-82
2023/01/16 00:59:14;;;;;;;;;;;2.40;92.80;;;;;;5055680;28;19909;-82
2023/01/16 01:01:39;;;;;;;;;;;2.40;93.00;;;;;;5045062;28;19969;-83
2023/01/16 01:04:05;;;;;;;;;;;2.40;93.10;;;;;;5044046;28;19920;-82
2023/01/16 01:06:31;;;;;;;;;;;2.40;93.20;;;;;;5047682;28;19949;-82
2023/01/16 01:08:56;;;;;;;;;;;2.40;93.30;;;;;;5040433;28;19924;-81
2023/01/16 01:11:22;;;;;;;;;;;2.40;93.20;;;;;;5039642;28;19924;-82
2023/01/16 01:13:49;;;;;;;;;;;2.40;93.30;;;;;;5038754;28;19924;-82
2023/01/16 01:16:14;;;;;;;;;;;2.40;93.20;;;;;;5039128;28;19909;-82
2023/01/16 01:18:40;;;;;;;;;;;2.40;93.30;;;;;;5039430;28;19915;-82
2023/01/16 01:21:06;;;;;;;;;;;2.40;93.40;;;;;;5059659;28;19923;-83
2023/01/16 01:23:31;;;;;;;;;;;2.40;93.40;;;;;;5059204;28;19917;-82
2023/01/16 01:25:57;;;;;;;;;;;2.40;93.40;;;;;;5058406;28;19909;-81
2023/01/16 01:28:23;;;;;;;;;;;2.40;93.50;;;;;;5041776;28;20319;-81
2023/01/16 01:30:48;;;;;;;;;;;2.40;93.40;;;;;;5058231;28;19925;-82
2023/01/16 01:33:14;;;;;;;;;;;2.40;93.50;;;;;;5058268;28;19923;-82
2023/01/16 01:35:39;;;;;;;;;;;2.40;93.60;;;;;;5055360;28;19917;-82
2023/01/16 01:38:05;;;;;;;;;;;2.40;93.70;;;;;;5038606;28;19928;-82
2023/01/16 01:40:32;;;;;;;;;;;2.40;93.70;;;;;;5049443;28;19928;-82
2023/01/16 01:42:57;;;;;;;;;;;2.40;93.60;;;;;;5059120;28;19984;-83
2023/01/16 01:45:27;;;;;;;;;;;2.40;93.50;;;;;;5059220;28;19913;-82
2023/01/16 01:48:02;;;;;;;;;;;2.40;93.60;;;;;;5041257;28;19909;-80
2023/01/16 01:50:38;;;;;;;;;;;2.40;93.60;;;;;;5034046;28;20293;-80
2023/01/16 01:53:07;;;;;;;;;;;2.40;93.70;;;;;;5049204;28;19952;-80
2023/01/16 01:55:33;;;;;;;;;;;2.40;93.40;;;;;;5039216;28;19901;-80
2023/01/16 01:58:00;;;;;;;;;;;2.40;93.40;;;;;;5056191;28;19912;-81
2023/01/16 02:00:26;;;;;;;;;;;2.30;93.50;;;;;;5044815;28;19909;-82
2023/01/16 02:02:54;;;;;;;;;;;2.30;93.60;;;;;;5053218;28;19909;-82
2023/01/16 02:05:23;;;;;;;;;;;2.30;93.70;;;;;;5039262;28;19963;-83
2023/01/16 02:07:49;;;;;;;;;;;2.20;93.70;;;;;;5057932;28;19909;-83
2023/01/16 02:10:36;;;;;;;;;;;2.20;93.80;;;;;;5063471;28;20207;-83
2023/01/16 02:13:01;;;;;;;;;;;2.20;93.90;;;;;;5045506;28;20019;-83
2023/01/16 02:15:28;;;;;;;;;;;2.20;94.00;;;;;;5062986;28;20211;-83
2023/01/16 02:20:56;;;;;;;;;;;2.20;94.20;;;;;;5063605;28;19924;-81
2023/01/16 02:23:27;;;;;;;;;;;2.10;94.20;;;;;;5042706;28;19909;-82
2023/01/16 02:25:53;;;;;;;;;;;2.10;94.20;;;;;;5042805;28;19909;-83
2023/01/16 02:28:18;;;;;;;;;;;2.10;94.40;;;;;;5042240;28;19913;-82
2023/01/16 02:31:03;;;;;;;;;;;2.20;94.50;;;;;;5042668;28;19909;-82
2023/01/16 02:33:46;;;;;;;;;;;2.10;94.40;;;;;;5042461;28;20293;-82
2023/01/16 02:36:31;;;;;;;;;;;2.10;94.40;;;;;;5028135;28;19956;-82
2023/01/16 02:39:15;;;;;;;;;;;2.00;94.40;;;;;;5043050;28;19948;-82
2023/01/16 02:47:19;;;;;;;;;;;2.10;94.90;;;;;;5040862;23;19914;-80
2023/01/16 02:56:41;;;;;;;;;;;2.00;94.90;;;;;;5059131;28;19912;-80
2023/01/16 03:19:30;;;;;;;;;;;1.80;95.20;;;;;;4980102;28;19926;-83
2023/01/16 03:22:16;;;;;;;;;;;1.80;95.30;;;;;;4971918;28;20021;-82
2023/01/16 03:28:32;;;;;;;;;;;1.70;95.30;;;;;;4980484;28;20065;-84
2023/01/16 03:33:58;;;;;;;;;;;;;;;;;;;;;
2023/01/16 03:36:31;;;;;;;;;;;1.70;95.50;;;;;;4972734;28;19996;-83
2023/01/16 03:39:23;;;;;;;;;;;1.70;95.50;;;;;;5001800;28;19917;-83
2023/01/16 03:41:53;;;;;;;;;;;1.70;95.60;;;;;;4982521;28;19952;-83
2023/01/16 03:47:45;;;;;;;;;;;1.70;95.70;;;;;;4943424;29;19911;-81
2023/01/16 03:50:31;;;;;;;;;;;1.70;95.70;;;;;;4956435;29;19990;-83
2023/01/16 03:56:16;;;;;;;;;;;1.60;96.00;;;;;;4924778;29;20011;-83
2023/01/16 03:59:02;;;;;;;;;;;1.60;95.80;;;;;;4937472;29;20279;-82
2023/01/16 04:01:46;;;;;;;;;;;1.50;95.80;;;;;;4942662;28;19917;-83
2023/01/16 04:04:35;;;;;;;;;;;1.60;96.10;;;;;;4977968;28;20319;-84
2023/01/16 04:07:22;;;;;;;;;;;1.50;96.10;;;;;;4981662;28;19993;-82
2023/01/16 04:09:48;;;;;;;;;;;1.50;96.00;;;;;;4997610;28;19980;-84
2023/01/16 04:12:17;;;;;;;;;;;1.50;96.10;;;;;;4973362;28;20370;-82
2023/01/16 04:14:53;;;;;;;;;;;1.50;96.20;;;;;;4982141;28;20380;-83
2023/01/16 04:17:42;;;;;;;;;;;1.40;96.20;;;;;;4963761;28;19910;-83
2023/01/16 04:20:09;;;;;;;;;;;1.40;96.30;;;;;;4962108;28;19918;-84
2023/01/16 04:22:54;;;;;;;;;;;1.40;96.40;;;;;;4963544;28;19990;-84
2023/01/16 04:25:20;;;;;;;;;;;1.30;96.50;;;;;;4982720;28;19970;-82
2023/01/16 04:27:48;;;;;;;;;;;1.30;96.70;;;;;;4992907;28;19902;-80
2023/01/16 04:36:31;;;;;;;;;;;1.20;97.10;;;;;;5009957;28;19909;-84
2023/01/16 04:39:01;;;;;;;;;;;1.20;97.20;;;;;;5021089;28;19945;-82
2023/01/16 04:44:17;;;;;;;;;;;1.10;97.40;;;;;;5021944;28;19919;-82
2023/01/16 05:05:20;;;;;;;;;;;0.90;98.90;;;;;;5038412;28;19949;-82
2023/01/16 05:16:37;;;;;;;;;;;0.70;99.50;;;;;;5070181;23;20417;-82
2023/01/16 05:19:24;;;;;;;;;;;;;;;;;;;;;
2023/01/16 05:22:02;;;;;;;;;;;0.70;99.70;;;;;;5015016;23;20013;-83
2023/01/16 05:28:03;;;;;;;;;;;0.70;99.90;;;;;;4999168;28;19918;-81
2023/01/16 05:30:29;;;;;;;;;;;0.70;99.90;;;;;;5015732;28;19910;-80
2023/01/16 05:32:55;;;;;;;;;;;0.70;99.90;;;;;;5016663;28;20472;-81
2023/01/16 05:35:20;;;;;;;;;;;0.60;99.90;;;;;;5004361;28;20032;-82
2023/01/16 05:37:46;;;;;;;;;;;0.60;99.90;;;;;;5016216;28;19909;-81
2023/01/16 05:40:12;;;;;;;;;;;0.60;99.90;;;;;;4989074;28;19993;-81
2023/01/16 05:42:38;;;;;;;;;;;0.70;99.90;;;;;;4997140;28;19902;-81
2023/01/16 05:45:03;;;;;;;;;;;0.60;99.90;;;;;;5017828;28;19910;-81
2023/01/16 05:47:29;;;;;;;;;;;0.60;99.90;;;;;;5018415;28;19933;-80
2023/01/16 05:49:58;;;;;;;;;;;0.60;99.90;;;;;;5019884;28;19917;-80
2023/01/16 05:52:25;;;;;;;;;;;0.60;99.90;;;;;;4989824;28;19921;-82
2023/01/16 05:54:51;;;;;;;;;;;0.60;99.90;;;;;;4989262;28;19917;-81
2023/01/16 05:57:16;;;;;;;;;;;0.60;99.90;;;;;;4993807;28;19913;-79
2023/01/16 05:59:45;;;;;;;;;;;0.60;99.90;;;;;;5016355;28;19960;-79
2023/01/16 06:02:11;;;;;;;;;;;0.60;99.90;;;;;;5030341;28;20005;-79
2023/01/16 06:04:36;;;;;;;;;;;0.60;99.90;;;;;;5002374;28;20366;-81
2023/01/16 06:07:02;;;;;;;;;;;0.60;99.90;;;;;;5019814;28;19992;-81
2023/01/16 06:09:28;;;;;;;;;;;0.60;99.90;;;;;;5022917;28;19976;-81
2023/01/16 06:11:53;;;;;;;;;;;0.60;99.90;;;;;;5003716;28;20025;-80
2023/01/16 06:14:19;;;;;;;;;;;0.60;99.90;;;;;;5020148;28;19925;-80
2023/01/16 06:16:44;;;;;;;;;;;0.50;99.90;;;;;;5016856;28;20017;-80
2023/01/16 06:19:10;;;;;;;;;;;0.60;99.90;;;;;;4989898;28;19996;-81
2023/01/16 06:21:35;;;;;;;;;;;0.60;99.90;;;;;;4994009;28;20371;-81
2023/01/16 06:24:01;;;;;;;;;;;0.60;99.90;;;;;;5019638;28;19983;-82
2023/01/16 06:26:26;;;;;;;;;;;0.60;99.90;;;;;;5018855;28;19920;-82
2023/01/16 06:28:52;;;;;;;;;;;0.60;99.90;;;;;;5015048;28;19910;-82
2023/01/16 06:31:18;;;;;;;;;;;0.60;99.90;;;;;;4999775;28;19914;-82
2023/01/16 06:33:43;;;;;;;;;;;0.60;99.90;;;;;;4981869;28;19926;-82
2023/01/16 06:36:09;;;;;;;;;;;0.60;99.90;;;;;;4982271;28;19910;-83
2023/01/16 06:38:35;;;;;;;;;;;0.60;99.90;;;;;;4998103;28;19980;-82
2023/01/16 06:41:01;;;;;;;;;;;0.60;99.90;;;;;;4999644;28;19914;-83
2023/01/16 06:43:27;;;;;;;;;;;0.60;99.90;;;;;;5001386;28;19920;-83
2023/01/16 06:45:53;;;;;;;;;;;0.60;99.90;;;;;;5001197;28;19917;-83
2023/01/16 06:48:19;;;;;;;;;;;0.60;99.90;;;;;;5001866;28;19917;-82
2023/01/16 06:50:45;;;;;;;;;;;0.60;99.90;;;;;;4999493;28;19910;-82
2023/01/16 06:53:11;;;;;;;;;;;0.70;99.90;;;;;;5000979;28;19918;-82
2023/01/16 06:55:37;;;;;;;;;;;0.70;99.90;;;;;;5001867;28;19980;-81
2023/01/16 06:58:02;;;;;;;;;;;0.70;99.90;;;;;;5001669;28;19909;-83
2023/01/16 07:00:28;;;;;;;;;;;0.80;99.90;;;;;;4984036;28;20381;-81
2023/01/16 07:02:54;;;;;;;;;;;0.80;99.90;;;;;;5011895;28;19923;-82
2023/01/16 07:05:20;;;;;;;;;;;0.80;99.90;;;;;;4983371;28;20000;-81
2023/01/16 07:07:46;;;;;;;;;;;0.80;99.90;;;;;;5017050;28;19909;-81
2023/01/16 07:10:11;;;;;;;;;;;0.80;99.90;;;;;;5000830;28;19910;-83
2023/01/16 07:12:37;;;;;;;;;;;0.80;99.90;;;;;;5001586;28;19910;-82
2023/01/16 07:23:21;;;;;;;;;;;0.90;99.90;;;;;;5008433;28;19949;-82
2023/01/16 07:25:47;;;;;;;;;;;0.90;99.90;;;;;;4977142;28;19934;-83
2023/01/16 07:28:38;;;;;;;;;;;1.00;99.90;;;;;;4999852;28;19914;-82
2023/01/16 07:31:04;;;;;;;;;;;1.00;99.90;;;;;;4998321;28;19914;-81
2023/01/16 07:33:30;;;;;;;;;;;1.00;99.90;;;;;;4982734;28;19945;-82
2023/01/16 07:35:56;;;;;;;;;;;1.00;99.90;;;;;;4993473;28;20383;-81
2023/01/16 07:38:21;;;;;;;;;;;1.00;99.90;;;;;;4998493;28;20056;-81
2023/01/16 07:40:47;;;;;;;;;;;1.10;99.90;;;;;;4998510;28;20426;-82
2023/01/16 07:43:12;;;;;;;;;;;1.10;99.90;;;;;;4979796;28;19917;-82
2023/01/16 07:45:38;;;;;;;;;;;1.10;99.90;;;;;;4975375;28;20078;-82
2023/01/16 07:48:04;;;;;;;;;;;1.30;99.90;;;;;;4983526;28;19918;-80
2023/01/16 07:50:29;;;;;;;;;;;1.40;99.90;;;;;;4997677;28;19973;-81
2023/01/16 07:52:55;;;;;;;;;;;1.40;99.70;;;;;;4981232;28;19933;-82
2023/01/16 07:55:20;;;;;;;;;;;1.30;99.60;;;;;;4999150;28;19914;-82
2023/01/16 07:57:46;;;;;;;;;;;1.30;99.80;;;;;;5019289;28;19920;-80
2023/01/16 08:00:12;;;;;;;;;;;1.30;99.80;;;;;;5003080;28;19909;-82
2023/01/16 08:02:38;;;;;;;;;;;1.30;99.90;;;;;;5005721;28;19952;-83
2023/01/16 08:05:04;;;;;;;;;;;1.30;99.90;;;;;;5011722;28;19921;-81
2023/01/16 08:07:29;;;;;;;;;;;1.30;99.90;;;;;;5015598;28;20389;-81
2023/01/16 08:09:55;;;;;;;;;;;1.40;99.80;;;;;;5015328;28;19928;-81
2023/01/16 08:12:20;;;;;;;;;;;1.40;99.60;;;;;;5015752;28;19921;-81
2023/01/16 08:14:46;;;;;;;;;;;1.40;99.60;;;;;;5017123;28;19914;-81
2023/01/16 08:17:12;;;;;;;;;;;1.50;99.60;;;;;;4997894;28;19945;-85
2023/01/16 08:19:37;;;;;;;;;;;1.60;99.10;;;;;;5005019;28;19921;-84
2023/01/16 08:22:03;;;;;;;;;;;1.60;98.90;;;;;;4997235;28;19992;-81
2023/01/16 08:24:29;;;;;;;;;;;1.70;99.00;;;;;;5021796;28;20309;-82
2023/01/16 08:26:55;;;;;;;;;;;1.70;98.90;;;;;;5020277;28;20313;-85
2023/01/16 08:29:21;;;;;;;;;;;1.80;98.80;;;;;;5019576;28;19910;-81
2023/01/16 08:31:46;;;;;;;;;;;1.90;98.40;;;;;;5021995;28;19940;-82
2023/01/16 08:34:14;;;;;;;;;;;1.90;98.30;;;;;;5013703;28;20451;-83
2023/01/16 08:36:50;;;;;;;;;;;2.00;98.30;;;;;;5034306;28;19913;-83
2023/01/16 08:39:26;;;;;;;;;;;2.10;98.30;;;;;;5039182;28;20289;-82
2023/01/16 08:53:12;;;;;;;;;;;2.40;97.30;;;;;;5052036;28;19928;-82
2023/01/16 08:55:41;;;;;;;;;;;2.50;97.10;;;;;;5039693;28;19929;-82
2023/01/16 08:58:06;;;;;;;;;;;2.50;96.80;;;;;;5039654;28;19933;-82
2023/01/16 09:00:34;;;;;;;;;;;2.40;96.90;;;;;;5046502;28;20013;-84
2023/01/16 09:03:01;;;;;;;;;;;2.60;97.10;;;;;;5022508;28;19951;-82
2023/01/16 09:05:27;;;;;;;;;;;2.70;97.00;;;;;;5052535;28;19936;-82
2023/01/16 09:07:53;;;;;;;;;;;2.90;96.80;;;;;;5051433;28;19905;-82
2023/01/16 09:10:18;;;;;;;;;;;3.00;96.60;;;;;;5029798;28;19917;-84
2023/01/16 09:15:28;;;;;;;;;;;3.40;95.90;;;;;;5052293;28;19932;-83
2023/01/16 09:17:53;;;;;;;;;;;3.50;94.70;;;;;;5039154;28;19964;-82
2023/01/16 09:20:19;;;;;;;;;;;3.50;94.40;;;;;;5034479;28;19909;-84
2023/01/16 09:22:44;;;;;;;;;;;3.50;94.50;;;;;;5043929;28;19917;-82
2023/01/16 09:25:10;;;;;;;;;;;3.60;94.60;;;;;;5030547;28;19909;-84
2023/01/16 09:27:35;;;;;;;;;;;3.80;94.60;;;;;;5015761;28;19913;-84
2023/01/16 09:30:01;;;;;;;;;;;4.00;94.10;;;;;;5042279;28;19913;-84
2023/01/16 09:32:27;;;;;;;;;;;4.10;93.70;;;;;;5042385;28;19917;-84
2023/01/16 09:34:52;;;;;;;;;;;4.30;93.40;;;;;;5049956;28;19936;-84
2023/01/16 09:37:18;;;;;;;;;;;4.30;92.70;;;;;;5051677;28;19909;-83
2023/01/16 09:39:44;;;;;;;;;;;4.30;91.80;;;;;;5054618;28;20015;-81
2023/01/16 09:48:32;;;;;;;;;;;4.70;91.60;;;;;;5025006;28;19941;-82
2023/01/16 09:59:27;;;;;;;;;;;5.00;89.30;;;;;;5022492;28;19921;-80
2023/01/16 10:02:14;;;;;;;;;;;5.00;88.80;;;;;;5020803;28;19924;-82
2023/01/16 10:04:56;;;;;;;;;;;5.00;88.00;;;;;;5047571;28;19909;-82
2023/01/16 10:07:39;;;;;;;;;;;4.90;88.00;;;;;;5048805;28;19927;-81
2023/01/16 10:10:46;;;;;;;;;;;4.90;87.50;;;;;;5052082;28;19980;-82
2023/01/16 10:20:21;;;;;;;;;;;4.70;87.50;;;;;;4949352;29;20326;-81
2023/01/16 10:23:05;;;;;;;;;;;5.10;86.30;;;;;;5010591;23;19942;-81
2023/01/16 10:29:28;;;;;;;;;;;;;;;;;;;;;
2023/01/16 10:32:01;;;;;;;;;;;4.90;85.60;;;;;;5007096;28;20016;-83
2023/01/16 10:34:47;;;;;;;;;;;4.90;85.90;;;;;;5020072;28;20397;-81
2023/01/16 10:37:13;;;;;;;;;;;5.10;85.80;;;;;;5003339;28;19945;-81
2023/01/16 10:39:39;;;;;;;;;;;5.10;85.60;;;;;;5020383;28;19920;-81
2023/01/16 10:50:27;;;;;;;;;;;5.60;82.30;;;;;;5019049;28;19920;-80
2023/01/16 10:52:53;;;;;;;;;;;5.70;82.40;;;;;;5020362;28;20310;-79
2023/01/16 10:55:18;;;;;;;;;;;5.90;80.90;;;;;;5003132;28;19933;-79
2023/01/16 10:57:46;;;;;;;;;;;6.00;80.30;;;;;;5020119;28;19959;-79
2023/01/16 11:00:19;;;;;;;;;;;6.20;79.90;;;;;;5029245;28;19913;-79
2023/01/16 11:02:48;;;;;;;;;;;6.10;77.60;;;;;;5034746;28;19909;-79
2023/01/16 11:05:26;;;;;;;;;;;5.80;78.40;;;;;;5013791;28;19909;-80
2023/01/16 11:07:54;;;;;;;;;;;5.70;79.80;;;;;;5006492;28;19910;-80
2023/01/16 11:10:21;;;;;;;;;;;5.80;79.10;;;;;;5006226;28;19918;-79
2023/01/16 11:18:29;;;;;;;;;;;6.00;78.80;;;;;;5018510;28;19920;-80
2023/01/16 11:21:13;;;;;;;;;;;6.40;79.00;;;;;;5018853;28;19914;-80
2023/01/16 11:23:41;;;;;;;;;;;6.50;76.20;;;;;;5017609;28;19949;-79
2023/01/16 11:26:07;;;;;;;;;;;6.30;76.70;;;;;;5021889;28;19913;-78
2023/01/16 11:28:34;;;;;;;;;;;6.30;76.70;;;;;;5025397;28;20536;-79
2023/01/16 11:31:01;;;;;;;;;;;6.20;76.00;;;;;;5023550;28;19913;-78
2023/01/16 11:33:35;;;;;;;;;;;6.20;75.60;;;;;;5001858;28;19977;-79
2023/01/16 11:36:02;;;;;;;;;;;6.00;76.40;;;;;;5014946;28;19925;-79
2023/01/16 11:38:29;;;;;;;;;;;6.10;77.30;;;;;;5045296;28;19995;-78
2023/01/16 11:40:55;;;;;;;;;;;6.20;77.20;;;;;;5044429;28;20399;-78
2023/01/16 11:46:19;;;;;;;;;;;6.10;75.70;;;;;;5048635;28;19919;-79
2023/01/16 11:48:45;;;;;;;;;;;6.10;76.50;;;;;;5027989;28;20390;-78
2023/01/16 11:51:12;;;;;;;;;;;6.00;76.10;;;;;;5048096;28;19897;-79
2023/01/16 11:53:38;;;;;;;;;;;6.00;76.60;;;;;;5040142;28;19921;-79
2023/01/16 11:56:16;;;;;;;;;;;6.20;77.00;;;;;;5054290;28;19917;-79
2023/01/16 11:58:48;;;;;;;;;;;6.20;75.90;;;;;;5023991;28;19955;-78
2023/01/16 12:01:16;;;;;;;;;;;6.30;75.40;;;;;;5044732;28;19963;-78
2023/01/16 12:04:00;;;;;;;;;;;6.30;74.90;;;;;;5046106;28;19984;-80
2023/01/16 12:06:33;;;;;;;;;;;6.30;74.40;;;;;;5042056;28;19923;-80
2023/01/16 12:08:59;;;;;;;;;;;6.40;74.90;;;;;;5026906;28;20095;-79
2023/01/16 12:11:37;;;;;;;;;;;6.40;74.70;;;;;;5023110;28;19909;-80
2023/01/16 12:14:18;;;;;;;;;;;6.40;74.10;;;;;;5018517;28;20305;-79
2023/01/16 12:16:54;;;;;;;;;;;6.50;74.50;;;;;;5038485;28;19909;-80
2023/01/16 12:19:49;;;;;;;;;;;6.50;74.40;;;;;;5024010;28;19913;-80
2023/01/16 12:22:33;;;;;;;;;;;6.40;73.90;;;;;;4986757;28;19938;-80
2023/01/16 12:25:17;;;;;;;;;;;6.20;75.00;;;;;;5018219;28;19917;-80
2023/01/16 12:27:50;;;;;;;;;;;6.10;75.70;;;;;;5017984;28;19910;-80
2023/01/16 12:30:16;;;;;;;;;;;6.20;76.70;;;;;;5020222;28;19920;-79
2023/01/16 12:33:02;;;;;;;;;;;6.40;76.50;;;;;;5019480;28;19909;-79
2023/01/16 12:35:32;;;;;;;;;;;6.60;76.30;;;;;;5029769;28;20385;-79
2023/01/16 12:38:16;;;;;;;;;;;6.90;75.40;;;;;;5038971;28;19909;-79
2023/01/16 12:43:18;;;;;;;;;;;6.90;74.60;;;;;;5037707;28;19979;-79
2023/01/16 12:43:57;;;;;;;;;;;7.10;74.60;;;;;;5037455;28;19913;-79
2023/01/16 12:46:28;;;;;;;;;;;7.10;73.90;;;;;;5037359;28;19909;-79
2023/01/16 12:49:01;;;;;;;;;;;7.10;73.40;;;;;;5037423;28;19909;-79
2023/01/16 12:51:27;;;;;;;;;;;7.00;73.50;;;;;;5037081;28;19954;-79
2023/01/16 12:54:12;;;;;;;;;;;7.00;74.00;;;;;;5018402;28;19917;-79
2023/01/16 12:56:56;;;;;;;;;;;7.00;74.10;;;;;;5036724;28;19931;-78
2023/01/16 12:59:24;;;;;;;;;;;7.00;73.90;;;;;;5035801;28;19909;-80
2023/01/16 13:01:59;;;;;;;;;;;7.10;74.00;;;;;;5038234;28;19936;-80
2023/01/16 13:04:37;;;;;;;;;;;7.10;74.00;;;;;;5041495;28;19909;-77
2023/01/16 13:07:05;;;;;;;;;;;7.10;73.90;;;;;;5023191;28;19924;-79
2023/01/16 13:09:50;;;;;;;;;;;7.10;73.50;;;;;;5022061;28;19949;-79
2023/01/16 13:15:11;;;;;;;;;;;7.00;74.20;;;;;;5040934;28;20012;-78
2023/01/16 13:17:43;;;;;;;;;;;6.90;74.20;;;;;;5022247;28;19989;-79
2023/01/16 13:20:10;;;;;;;;;;;6.90;74.60;;;;;;5020710;28;19944;-78
2023/01/16 13:22:41;;;;;;;;;;;7.00;74.80;;;;;;5037446;28;19960;-79
2023/01/16 13:25:17;;;;;;;;;;;7.00;74.70;;;;;;5037502;28;19913;-79
2023/01/16 13:27:54;;;;;;;;;;;7.00;74.90;;;;;;5038940;28;20061;-82
2023/01/16 13:30:20;;;;;;;;;;;6.90;74.90;;;;;;5037161;28;19956;-79
2023/01/16 13:32:54;;;;;;;;;;;6.90;75.30;;;;;;5019096;28;19913;-79
2023/01/16 13:35:38;;;;;;;;;;;6.80;75.40;;;;;;5017922;28;19917;-79
2023/01/16 13:38:13;;;;;;;;;;;6.80;75.60;;;;;;5019183;28;19933;-80
2023/01/16 13:40:38;;;;;;;;;;;6.80;75.90;;;;;;5016680;28;19973;-78
2023/01/16 13:45:51;;;;;;;;;;;6.90;75.80;;;;;;5024487;28;19975;-80
2023/01/16 13:48:21;;;;;;;;;;;6.90;76.00;;;;;;5037850;28;19933;-79
2023/01/16 13:51:01;;;;;;;;;;;6.90;76.00;;;;;;5039975;28;19913;-80
2023/01/16 13:53:28;;;;;;;;;;;6.90;75.90;;;;;;5044355;28;19968;-79
2023/01/16 13:56:08;;;;;;;;;;;7.00;76.50;;;;;;5055026;28;19973;-79
2023/01/16 13:58:38;;;;;;;;;;;7.00;75.80;;;;;;5039449;28;19999;-82
2023/01/16 14:01:04;;;;;;;;;;;7.00;75.40;;;;;;5039124;28;19909;-79
2023/01/16 14:03:31;;;;;;;;;;;7.00;75.00;;;;;;5038838;28;19909;-80
2023/01/16 14:06:09;;;;;;;;;;;7.00;74.60;;;;;;5040965;28;19909;-80
2023/01/16 14:11:28;;;;;;;;;;;7.00;73.90;;;;;;5040292;28;19931;-80
2023/01/16 14:14:12;;;;;;;;;;;7.00;73.70;;;;;;5040629;28;20323;-80
2023/01/16 14:16:38;;;;;;;;;;;6.90;73.70;;;;;;5046936;28;19910;-80
2023/01/16 14:19:14;;;;;;;;;;;6.90;74.00;;;;;;5054904;28;19909;-79
2023/01/16 14:21:43;;;;;;;;;;;6.80;73.50;;;;;;5054403;28;19913;-80
2023/01/16 14:24:17;;;;;;;;;;;6.80;73.70;;;;;;5038219;28;19969;-78
2023/01/16 14:26:45;;;;;;;;;;;6.80;73.80;;;;;;5056451;28;19976;-79
2023/01/16 14:29:22;;;;;;;;;;;6.80;74.10;;;;;;5055857;28;19913;-78
2023/01/16 14:31:54;;;;;;;;;;;6.70;73.40;;;;;;5050483;28;19909;-80
2023/01/16 14:34:21;;;;;;;;;;;6.70;73.40;;;;;;5041883;28;20516;-79
2023/01/16 14:36:50;;;;;;;;;;;6.70;72.50;;;;;;5040928;28;19909;-80
2023/01/16 14:39:26;;;;;;;;;;;6.70;71.80;;;;;;5021547;28;19983;-80
2023/01/16 14:56:33;;;;;;;;;;;6.30;67.80;;;;;;5038820;28;19915;-79
2023/01/16 14:59:04;;;;;;;;;;;6.20;67.80;;;;;;5039101;28;19962;-80
2023/01/16 15:04:18;;;;;;;;;;;6.20;66.00;;;;;;5038015;28;20055;-79
2023/01/16 15:06:47;;;;;;;;;;;6.10;65.60;;;;;;5037987;28;19928;-80
2023/01/16 15:09:15;;;;;;;;;;;6.00;65.50;;;;;;5020542;28;19913;-80
2023/01/16 15:11:45;;;;;;;;;;;5.90;65.10;;;;;;5039665;28;20560;-79
2023/01/16 15:14:31;;;;;;;;;;;5.90;64.80;;;;;;5020252;28;19920;-80
2023/01/16 15:22:41;;;;;;;;;;;5.80;63.00;;;;;;5036187;28;20289;-81
2023/01/16 15:25:22;;;;;;;;;;;5.70;62.70;;;;;;5037281;28;19909;-79
2023/01/16 15:27:51;;;;;;;;;;;5.70;62.30;;;;;;5036757;28;20362;-79
2023/01/16 15:30:18;;;;;;;;;;;5.70;62.00;;;;;;5037129;28;19928;-79
2023/01/16 15:32:54;;;;;;;;;;;5.60;61.80;;;;;;5037948;28;20342;-80
2023/01/16 15:35:22;;;;;;;;;;;5.60;62.00;;;;;;5037537;28;20000;-80
2023/01/16 15:37:52;;;;;;;;;;;5.60;62.40;;;;;;5037932;28;19994;-80
2023/01/16 15:40:22;;;;;;;;;;;5.60;62.70;;;;;;5038383;28;19921;-80
2023/01/16 15:48:22;;;;;;;;;;;5.50;64.20;;;;;;5036701;28;19920;-80
2023/01/16 15:50:55;;;;;;;;;;;5.40;65.00;;;;;;5019329;28;19959;-80
2023/01/16 15:53:22;;;;;;;;;;;5.40;65.70;;;;;;5034085;28;19969;-80
2023/01/16 15:55:50;;;;;;;;;;;5.40;65.90;;;;;;5057289;28;19929;-79
2023/01/16 15:58:21;;;;;;;;;;;5.30;65.80;;;;;;5041828;28;19924;-79
2023/01/16 16:00:54;;;;;;;;;;;5.20;65.90;;;;;;5039651;28;19917;-82
2023/01/16 16:03:24;;;;;;;;;;;5.20;65.80;;;;;;5017820;28;19910;-80
2023/01/16 16:05:52;;;;;;;;;;;5.10;65.60;;;;;;5016192;28;19910;-81
2023/01/16 16:08:20;;;;;;;;;;;5.10;65.60;;;;;;5035711;28;20343;-80
2023/01/16 16:13:30;;;;;;;;;;;;;;;;;;5034921;28;20396;-79
2023/01/16 16:18:41;;;;;;;;;;;;;;;;;;5035367;28;19915;-81
2023/01/16 16:21:09;;;;;;;;;;;5.00;65.70;;;;;;5035516;28;20007;-79
2023/01/16 16:23:34;;;;;;;;;;;4.90;66.40;;;;;;5035600;28;19917;-80
2023/01/16 16:26:03;;;;;;;;;;;4.90;66.70;;;;;;5019109;28;19909;-80
2023/01/16 16:28:32;;;;;;;;;;;4.80;66.80;;;;;;5020818;28;19909;-79
2023/01/16 16:30:57;;;;;;;;;;;4.80;67.30;;;;;;5049818;28;19920;-79
2023/01/16 16:33:24;;;;;;;;;;;4.80;66.90;;;;;;5052643;28;19902;-80
2023/01/16 16:35:51;;;;;;;;;;;4.80;66.80;;;;;;5034810;28;19960;-79
2023/01/16 16:38:21;;;;;;;;;;;4.70;66.80;;;;;;5054554;28;19909;-79
2023/01/16 16:41:02;;;;;;;;;;;4.70;66.90;;;;;;5053680;28;19905;-80
2023/01/16 16:43:49;;;;;;;;;;;4.70;67.10;;;;;;5031337;28;19920;-79
2023/01/16 16:46:23;;;;;;;;;;;4.70;67.30;;;;;;5042127;28;19916;-79
2023/01/16 16:48:53;;;;;;;;;;;4.60;67.30;;;;;;5040688;28;19915;-79
2023/01/16 16:51:36;;;;;;;;;;;4.60;67.50;;;;;;5039691;28;19909;-79
2023/01/16 16:54:15;;;;;;;;;;;4.60;67.80;;;;;;5038021;28;19952;-80
2023/01/16 16:56:46;;;;;;;;;;;4.60;67.80;;;;;;5038063;28;19909;-80
2023/01/16 16:59:15;;;;;;;;;;;4.60;67.80;;;;;;5041291;28;19933;-80
2023/01/16 17:01:44;;;;;;;;;;;4.60;67.90;;;;;;5029351;28;19910;-79
2023/01/16 17:04:16;;;;;;;;;;;4.50;68.20;;;;;;5016084;28;19996;-80
2023/01/16 17:06:42;;;;;;;;;;;4.50;68.40;;;;;;5016671;28;19957;-80
2023/01/16 17:09:17;;;;;;;;;;;4.50;68.60;;;;;;5030558;28;19994;-81
2023/01/16 17:11:43;;;;;;;;;;;4.50;68.90;;;;;;5007924;28;20008;-79
2023/01/16 17:14:08;;;;;;;;;;;4.50;69.00;;;;;;5039802;28;19913;-81
2023/01/16 17:16:34;;;;;;;;;;;4.50;69.20;;;;;;5039393;28;19977;-81
2023/01/16 17:18:59;;;;;;;;;;;4.60;69.30;;;;;;5038961;28;20235;-80
2023/01/16 17:21:25;;;;;;;;;;;4.70;69.10;;;;;;5020589;28;19909;-79
2023/01/16 17:23:50;;;;;;;;;;;4.70;68.80;;;;;;5040273;28;19917;-81
2023/01/16 17:26:16;;;;;;;;;;;4.70;68.30;;;;;;5039296;28;20039;-81
2023/01/16 17:28:42;;;;;;;;;;;4.80;68.10;;;;;;5036772;28;20005;-80
2023/01/16 17:31:15;;;;;;;;;;;4.80;67.70;;;;;;5038599;28;20388;-80
2023/01/16 17:33:40;;;;;;;;;;;4.80;67.60;;;;;;5030180;28;19914;-81
2023/01/16 17:36:09;;;;;;;;;;;4.80;67.40;;;;;;5049187;28;20000;-79
2023/01/16 17:38:43;;;;;;;;;;;4.70;67.10;;;;;;5024520;28;20353;-79
2023/01/16 17:41:15;;;;;;;;;;;4.70;67.20;;;;;;5049148;28;19944;-79
2023/01/16 17:46:24;;;;;;;;;;;4.60;66.90;;;;;;5044159;28;20289;-81
2023/01/16 17:48:50;;;;;;;;;;;4.60;66.40;;;;;;5045226;28;19980;-80
2023/01/16 17:51:21;;;;;;;;;;;4.60;66.30;;;;;;5056899;28;19917;-78
2023/01/16 17:53:47;;;;;;;;;;;4.60;66.70;;;;;;5054953;28;19921;-79
2023/01/16 17:56:12;;;;;;;;;;;4.60;66.90;;;;;;5058554;28;20315;-78
2023/01/16 18:01:12;;;;;;;;;;;4.60;67.60;;;;;;5049008;28;19919;-79
2023/01/16 18:03:38;;;;;;;;;;;4.60;68.00;;;;;;5026202;28;20318;-79
2023/01/16 18:06:04;;;;;;;;;;;4.60;68.20;;;;;;5045277;28;19976;-79
2023/01/16 18:08:30;;;;;;;;;;;4.50;68.20;;;;;;5043863;28;19913;-79
2023/01/16 18:17:20;;;;;;;;;;;4.40;68.30;;;;;;5041031;28;19917;-80